European Highlander — C6SN6 — position and weather

sailwx.info

Track history (hours):
 
Tides and Currents Weather Stations Pressure Air Temp Water Temp Dewpoint Dewpoint Depression Visibility Wind Speed Wind Dir Waves Ship Positions

European Highlander

Operator: P&O Irish Sea Ltd

Last reported at 2017-Jan-21 03:32 UTC. Time now 2017-Jan-21 04:27 UTC.
Position N 54°51' W 005°48'.

Length 161 m; draft 5.5 m.

Type: Passenger vessel. MMSI: 311404000.

Date/timePositionNaut miles runAvg speedWind from/ knotsBaromVisibWave heightAir tempDewpointWater temp
2017-Jan-21 03:32N 54°51' W 005°48'0 0.0
2017-Jan-21 02:32N 54°51' W 005°48'3 3.2
2017-Jan-21 01:34N 54°53' W 005°44'1717.0
2017-Jan-21 00:33N 55°00' W 005°17'10 7.5
2017-Jan-20 23:17N 54°58' W 005°01'0 0.0
2017-Jan-20 22:33N 54°58' W 005°01'5 4.4
2017-Jan-20 21:25N 55°02' W 005°07'1517.2
2017-Jan-20 20:34N 54°56' W 005°30'1111.3
2017-Jan-20 19:34N 54°51' W 005°48'0 0.0
2017-Jan-20 18:33N 54°51' W 005°48'1313.3
2017-Jan-20 17:33N 54°58' W 005°28'1514.6
2017-Jan-20 16:33N 54°59' W 005°02'1 1.4
2017-Jan-20 15:33N 54°58' W 005°01'9 9.5
2017-Jan-20 14:33N 54°59' W 005°17'1818.1
2017-Jan-20 13:33N 54°52' W 005°46'2 1.5
2017-Jan-20 12:33N 54°51' W 005°48'1312.6
2017-Jan-20 11:33N 54°57' W 005°29'1514.5
2017-Jan-20 10:30N 54°59' W 005°02'1 1.3
2017-Jan-20 09:33N 54°58' W 005°01'10 9.8
2017-Jan-20 08:33N 54°59' W 005°18'1817.7
2017-Jan-20 07:33N 54°52' W 005°46'2 1.5
2017-Jan-20 06:29N 54°51' W 005°48'6 7.0
2017-Jan-20 05:34N 54°54' W 005°38'1716.5
2017-Jan-20 04:32N 55°01' W 005°12'7 7.2
2017-Jan-20 03:33N 54°58' W 005°01'0 0.0
2017-Jan-20 02:27N 54°58' W 005°01'5 5.1
2017-Jan-20 01:30N 55°01' W 005°06'1617.4
2017-Jan-20 00:34N 54°55' W 005°32'10 9.9
2017-Jan-19 23:33N 54°51' W 005°48'0 0.0
2017-Jan-19 22:33N 54°51' W 005°48'3 3.2
2017-Jan-19 21:33N 54°53' W 005°43'1717.1
2017-Jan-19 20:33N 55°00' W 005°17'9 8.8
2017-Jan-19 19:29N 54°58' W 005°01'0 0.0
2017-Jan-19 18:33N 54°58' W 005°01'10 9.8
2017-Jan-19 17:33N 54°59' W 005°18'1817.8
2017-Jan-19 16:32N 54°52' W 005°47'1 1.0
2017-Jan-19 15:33N 54°51' W 005°48'1211.9
2017-Jan-19 14:33N 54°57' W 005°30'1514.6
2017-Jan-19 13:30N 54°59' W 005°03'2 2.3
2017-Jan-19 12:33N 54°58' W 005°01'10 9.7
2017-Jan-19 11:33N 54°59' W 005°18'1817.5
2017-Jan-19 10:32N 54°52' W 005°46'1 1.4
2017-Jan-19 09:29N 54°51' W 005°48'1414.8
2017-Jan-19 08:33N 54°57' W 005°27'1414.5
2017-Jan-19 07:34N 54°58' W 005°02'1 0.8
2017-Jan-19 06:32N 54°58' W 005°01'5 4.7
2017-Jan-19 05:31N 55°02' W 005°06'1717.3
2017-Jan-19 04:33N 54°55' W 005°33'10 9.6
2017-Jan-19 03:32N 54°51' W 005°48'0 0.0
2017-Jan-19 02:26N 54°51' W 005°48'4 4.4
2017-Jan-19 01:33N 54°53' W 005°42'1616.6
2017-Jan-19 00:34N 54°60' W 005°16'9 7.5
2017-Jan-18 23:21N 54°58' W 005°01'0 0.0
2017-Jan-18 22:24N 54°58' W 005°01'6 5.8
2017-Jan-18 21:26N 55°02' W 005°08'1617.7
2017-Jan-18 20:33N 54°55' W 005°33'10 9.6
2017-Jan-18 19:33N 54°51' W 005°48'0 0.0
2017-Jan-18 18:33N 54°51' W 005°48'1313.5
2017-Jan-18 17:33N 54°57' W 005°27'1414.5
2017-Jan-18 16:34N 54°58' W 005°02'1 0.9
2017-Jan-18 15:33N 54°58' W 005°01'1010.2
2017-Jan-18 14:33N 54°59' W 005°19'1817.9
2017-Jan-18 13:33N 54°52' W 005°47'1 1.0
2017-Jan-18 12:34N 54°51' W 005°48'1413.8
2017-Jan-18 11:33N 54°57' W 005°27'1514.8
2017-Jan-18 10:33N 54°58' W 005°01'0 0.0
2017-Jan-18 09:33N 54°58' W 005°01'10 9.8
2017-Jan-18 08:34N 54°59' W 005°18'1818.1
2017-Jan-18 07:33N 54°52' W 005°47'1 1.3
2017-Jan-18 06:34N 54°51' W 005°48'2 2.1
2017-Jan-18 05:34N 54°52' W 005°45'2020.0
2017-Jan-18 04:33N 55°01' W 005°14'8 8.0
2017-Jan-18 03:33N 54°58' W 005°01'0 0.0
2017-Jan-18 02:33N 54°58' W 005°01'5 4.4
2017-Jan-18 01:31N 55°01' W 005°06'1919.4
2017-Jan-18 00:33N 54°54' W 005°35'8 7.9
2017-Jan-17 23:33N 54°51' W 005°48'0 0.0
2017-Jan-17 22:33N 54°51' W 005°48'4 4.2
2017-Jan-17 21:34N 54°53' W 005°42'1716.6
2017-Jan-17 20:33N 55°00' W 005°16'9 8.3
2017-Jan-17 19:30N 54°58' W 005°01'0 0.0
2017-Jan-17 18:32N 54°58' W 005°01'1212.0
2017-Jan-17 17:33N 54°60' W 005°21'1716.3
2017-Jan-17 16:29N 54°51' W 005°48'0 0.2
2017-Jan-17 15:34N 54°51' W 005°48'1211.9
2017-Jan-17 14:33N 54°57' W 005°30'1614.4
2017-Jan-17 13:27N 54°59' W 005°02'1 1.2
2017-Jan-17 12:24N 54°58' W 005°01'1012.1
2017-Jan-17 11:31N 54°59' W 005°19'1817.5
2017-Jan-17 10:30N 54°51' W 005°48'0 0.2
2017-Jan-17 09:33N 54°51' W 005°48'1212.5
2017-Jan-17 08:33N 54°57' W 005°29'1514.7
2017-Jan-17 07:31N 54°59' W 005°02'1 1.5
2017-Jan-17 06:33N 54°58' W 005°01'5 5.1
2017-Jan-17 05:33N 55°02' W 005°07'1817.5
2017-Jan-17 04:33N 54°55' W 005°35'8 8.4
2017-Jan-17 03:33N 54°51' W 005°48'0 0.0
2017-Jan-17 02:33N 54°51' W 005°48'4 3.9
2017-Jan-17 01:33N 54°53' W 005°42'1817.8
2017-Jan-17 00:33N 55°01' W 005°14'8 7.4
2017-Jan-16 23:26N 54°58' W 005°01'0 0.0
2017-Jan-16 22:29N 54°58' W 005°01'5 5.2
2017-Jan-16 21:29N 55°02' W 005°07'1718.4
2017-Jan-16 20:33N 54°55' W 005°34'9 8.7
2017-Jan-16 19:33N 54°51' W 005°48'0 0.0
2017-Jan-16 18:33N 54°51' W 005°48'1413.5
2017-Jan-16 17:33N 54°57' W 005°27'1414.4
2017-Jan-16 16:33N 54°59' W 005°02'1 1.4
2017-Jan-16 15:33N 54°58' W 005°01'1212.1
2017-Jan-16 14:33N 54°58' W 005°22'1616.3
2017-Jan-16 13:33N 54°51' W 005°48'0 0.1
2017-Jan-16 12:31N 54°51' W 005°48'1111.7
2017-Jan-16 11:33N 54°56' W 005°31'1615.4
2017-Jan-16 10:30N 54°59' W 005°03'2 1.9
2017-Jan-16 09:33N 54°58' W 005°01'1211.5
2017-Jan-16 08:33N 54°58' W 005°21'1716.5
2017-Jan-16 07:32N 54°51' W 005°48'0 0.1
2017-Jan-16 06:32N 54°51' W 005°48'4 4.4
2017-Jan-16 05:33N 54°54' W 005°42'1717.1
2017-Jan-16 04:33N 55°01' W 005°15'9 8.9
2017-Jan-16 03:32N 54°58' W 005°01'0 0.0
2017-Jan-16 02:32N 54°58' W 005°01'5 2.7
2017-Jan-16 00:32N 55°01' W 005°08'1616.8
2017-Jan-15 23:33N 54°54' W 005°33'9 9.1
2017-Jan-15 22:33N 54°51' W 005°48'5 4.9
2017-Jan-15 21:29N 54°54' W 005°40'1516.5
2017-Jan-15 20:33N 55°00' W 005°16'9 8.6
2017-Jan-15 19:30N 54°58' W 005°01'0 0.1
2017-Jan-15 18:33N 54°58' W 005°01'1110.6
2017-Jan-15 17:33N 54°58' W 005°20'1717.0
2017-Jan-15 16:32N 54°52' W 005°47'1 0.7
2017-Jan-15 15:19N 54°51' W 005°48'4 5.4
2017-Jan-15 14:34N 54°53' W 005°42'1716.9
2017-Jan-15 13:33N 55°01' W 005°15'9 8.8
2017-Jan-15 12:33N 54°58' W 005°01'0 0.0
2017-Jan-15 10:26N 54°58' W 005°01'0 0.0
2017-Jan-15 09:33N 54°58' W 005°01'9 8.8
2017-Jan-15 08:34N 54°59' W 005°16'1918.5
2017-Jan-15 07:31N 54°52' W 005°47'1 1.2
2017-Jan-15 06:28N 54°51' W 005°48'0 0.0
2017-Jan-15 05:25N 54°51' W 005°48'0 0.0
2017-Jan-15 04:31N 54°51' W 005°48'0 0.0
2017-Jan-15 03:31N 54°51' W 005°48'0 0.0
2017-Jan-15 02:31N 54°51' W 005°48'0 0.0
2017-Jan-15 01:31N 54°51' W 005°48'0 0.0
2017-Jan-15 00:31N 54°51' W 005°48'0 0.0
2017-Jan-14 23:31N 54°51' W 005°48'0 0.0
2017-Jan-14 22:31N 54°51' W 005°48'5 4.9
2017-Jan-14 21:33N 54°54' W 005°41'1615.8
2017-Jan-14 20:33N 54°60' W 005°16'9 8.2
2017-Jan-14 19:26N 54°58' W 005°01'0 0.1
2017-Jan-14 18:30N 54°58' W 005°01'1011.0
2017-Jan-14 17:33N 54°59' W 005°19'1817.8
2017-Jan-14 16:33N 54°51' W 005°48'1 0.6
2017-Jan-14 15:33N 54°51' W 005°48'1313.4
2017-Jan-14 14:33N 54°58' W 005°28'1414.2
2017-Jan-14 13:33N 54°59' W 005°03'2 1.6
2017-Jan-14 12:27N 54°58' W 005°01'1011.2
2017-Jan-14 11:33N 54°59' W 005°18'1818.0
2017-Jan-14 10:32N 54°52' W 005°47'1 1.0
2017-Jan-14 09:33N 54°51' W 005°48'1313.5
2017-Jan-14 08:34N 54°57' W 005°27'1414.3
2017-Jan-14 07:33N 54°59' W 005°02'1 1.2
2017-Jan-14 06:33N 54°58' W 005°01'5 5.0
2017-Jan-14 05:33N 55°02' W 005°06'1716.7
2017-Jan-14 04:33N 54°55' W 005°33'9 9.3
2017-Jan-14 03:33N 54°51' W 005°48'25 4.0
2017-Jan-13 21:19N 55°01' W 005°09'1317.1
2017-Jan-13 20:34N 54°56' W 005°29'1211.7
2017-Jan-13 19:33N 54°51' W 005°48'0 0.0
2017-Jan-13 18:30N 54°51' W 005°48'1414.9
2017-Jan-13 17:33N 54°58' W 005°27'1512.9
2017-Jan-13 16:25N 54°58' W 005°01'1 1.4
2017-Jan-13 15:21N 54°59' W 005°03'1417.4
2017-Jan-13 14:33N 55°01' W 005°27'1615.8
2017-Jan-13 13:33N 54°51' W 005°48'3 2.9
2017-Jan-13 12:33N 54°53' W 005°44'2019.8
2017-Jan-13 11:33N 55°02' W 005°13'8 7.9
2017-Jan-13 10:32N 54°58' W 005°01'2 1.6
2017-Jan-13 09:33N 54°59' W 005°03'1414.3
2017-Jan-13 08:34N 55°01' W 005°27'1515.2
2017-Jan-13 07:33N 54°51' W 005°48'0 0.0
2017-Jan-13 06:33N 54°51' W 005°48'7 6.9
2017-Jan-13 05:33N 54°54' W 005°37'1918.1
2017-Jan-13 04:30N 55°02' W 005°07'5 2.6
2017-Jan-13 02:33N 54°58' W 005°01'5 5.0
2017-Jan-13 01:30N 55°02' W 005°07'1818.9
2017-Jan-13 00:32N 54°56' W 005°37'8 7.9
2017-Jan-12 23:33N 54°51' W 005°48'0 0.0
2017-Jan-12 22:33N 54°51' W 005°48'4 4.5
2017-Jan-12 21:33N 54°53' W 005°41'2317.1
2017-Jan-12 20:13N 54°59' W 005°03'2 2.1
2017-Jan-12 19:24N 54°58' W 005°01'0 0.1
2017-Jan-12 18:25N 54°58' W 005°01'1112.3
2017-Jan-12 17:33N 54°60' W 005°19'1917.9
2017-Jan-12 16:31N 54°51' W 005°48'0 0.4
2017-Jan-12 15:32N 54°51' W 005°48'1313.0
2017-Jan-12 14:33N 54°57' W 005°29'1515.3
2017-Jan-12 13:33N 54°59' W 005°02'1 1.3
2017-Jan-12 12:33N 54°58' W 005°01'1211.7
2017-Jan-12 11:33N 54°57' W 005°21'1616.5
2017-Jan-12 10:33N 54°51' W 005°48'0 0.0
2017-Jan-12 09:33N 54°51' W 005°48'1615.5
2017-Jan-12 08:33N 54°58' W 005°24'1310.4
2017-Jan-12 07:16N 54°58' W 005°01'0 0.0
2017-Jan-12 06:31N 54°58' W 005°01'5 4.8
2017-Jan-12 05:29N 55°02' W 005°06'1717.9
2017-Jan-12 04:33N 54°55' W 005°33'9 9.0
2017-Jan-12 03:31N 54°51' W 005°48'0 0.0
2017-Jan-12 02:31N 54°51' W 005°48'1 1.5
2017-Jan-12 01:31N 54°52' W 005°47'2020.8
2017-Jan-12 00:33N 55°02' W 005°17'10 7.0
2017-Jan-11 23:06N 54°58' W 005°01'0 0.0
2017-Jan-11 22:30N 54°58' W 005°01'5 4.7
2017-Jan-11 21:27N 55°02' W 005°06'1820.3
2017-Jan-11 20:33N 54°54' W 005°36'8 7.7
2017-Jan-11 19:32N 54°51' W 005°48'2 1.8
2017-Jan-11 18:33N 54°52' W 005°46'2712.8
2017-Jan-11 16:29N 54°58' W 005°01'0 0.0
2017-Jan-11 15:33N 54°58' W 005°01'1211.7
2017-Jan-11 14:32N 54°58' W 005°21'1717.1
2017-Jan-11 13:34N 54°51' W 005°48'0 0.0
2017-Jan-11 12:31N 54°51' W 005°48'1617.0
2017-Jan-11 11:33N 54°59' W 005°24'1312.7
2017-Jan-11 10:32N 54°58' W 005°01'0 0.1
2017-Jan-11 09:23N 54°58' W 005°01'911.0
2017-Jan-11 08:33N 55°01' W 005°15'1918.8
2017-Jan-11 07:33N 54°52' W 005°44'3 2.6
2017-Jan-11 06:32N 54°51' W 005°48'2 2.0
2017-Jan-11 05:34N 54°52' W 005°46'1919.5
2017-Jan-11 04:34N 55°01' W 005°15'  
Track history (hours):
 
Tides and Currents Weather Stations Pressure Air Temp Water Temp Dewpoint Dewpoint Depression Visibility Wind Speed Wind Dir Waves Ship Positions

European Highlander

Operator: P&O Irish Sea Ltd

Last reported at 2017-Jan-21 03:32 UTC. Time now 2017-Jan-21 04:27 UTC.
Position N 54°51' W 005°48'.

Length 161 m; draft 5.5 m.

Type: Passenger vessel. MMSI: 311404000.

Date/timePositionNaut miles runAvg speedWind from/ knotsBaromVisibWave heightAir tempDewpointWater temp
2017-Jan-21 03:32N 54°51' W 005°48'0 0.0
2017-Jan-21 02:32N 54°51' W 005°48'3 3.2
2017-Jan-21 01:34N 54°53' W 005°44'1717.0
2017-Jan-21 00:33N 55°00' W 005°17'10 7.5
2017-Jan-20 23:17N 54°58' W 005°01'0 0.0
2017-Jan-20 22:33N 54°58' W 005°01'5 4.4
2017-Jan-20 21:25N 55°02' W 005°07'1517.2
2017-Jan-20 20:34N 54°56' W 005°30'1111.3
2017-Jan-20 19:34N 54°51' W 005°48'0 0.0
2017-Jan-20 18:33N 54°51' W 005°48'1313.3
2017-Jan-20 17:33N 54°58' W 005°28'1514.6
2017-Jan-20 16:33N 54°59' W 005°02'1 1.4
2017-Jan-20 15:33N 54°58' W 005°01'9 9.5
2017-Jan-20 14:33N 54°59' W 005°17'1818.1
2017-Jan-20 13:33N 54°52' W 005°46'2 1.5
2017-Jan-20 12:33N 54°51' W 005°48'1312.6
2017-Jan-20 11:33N 54°57' W 005°29'1514.5
2017-Jan-20 10:30N 54°59' W 005°02'1 1.3
2017-Jan-20 09:33N 54°58' W 005°01'10 9.8
2017-Jan-20 08:33N 54°59' W 005°18'1817.7
2017-Jan-20 07:33N 54°52' W 005°46'2 1.5
2017-Jan-20 06:29N 54°51' W 005°48'6 7.0
2017-Jan-20 05:34N 54°54' W 005°38'1716.5
2017-Jan-20 04:32N 55°01' W 005°12'7 7.2
2017-Jan-20 03:33N 54°58' W 005°01'0 0.0
2017-Jan-20 02:27N 54°58' W 005°01'5 5.1
2017-Jan-20 01:30N 55°01' W 005°06'1617.4
2017-Jan-20 00:34N 54°55' W 005°32'10 9.9
2017-Jan-19 23:33N 54°51' W 005°48'0 0.0
2017-Jan-19 22:33N 54°51' W 005°48'3 3.2
2017-Jan-19 21:33N 54°53' W 005°43'1717.1
2017-Jan-19 20:33N 55°00' W 005°17'9 8.8
2017-Jan-19 19:29N 54°58' W 005°01'0 0.0
2017-Jan-19 18:33N 54°58' W 005°01'10 9.8
2017-Jan-19 17:33N 54°59' W 005°18'1817.8
2017-Jan-19 16:32N 54°52' W 005°47'1 1.0
2017-Jan-19 15:33N 54°51' W 005°48'1211.9
2017-Jan-19 14:33N 54°57' W 005°30'1514.6
2017-Jan-19 13:30N 54°59' W 005°03'2 2.3
2017-Jan-19 12:33N 54°58' W 005°01'10 9.7
2017-Jan-19 11:33N 54°59' W 005°18'1817.5
2017-Jan-19 10:32N 54°52' W 005°46'1 1.4
2017-Jan-19 09:29N 54°51' W 005°48'1414.8
2017-Jan-19 08:33N 54°57' W 005°27'1414.5
2017-Jan-19 07:34N 54°58' W 005°02'1 0.8
2017-Jan-19 06:32N 54°58' W 005°01'5 4.7
2017-Jan-19 05:31N 55°02' W 005°06'1717.3
2017-Jan-19 04:33N 54°55' W 005°33'10 9.6
2017-Jan-19 03:32N 54°51' W 005°48'0 0.0
2017-Jan-19 02:26N 54°51' W 005°48'4 4.4
2017-Jan-19 01:33N 54°53' W 005°42'1616.6
2017-Jan-19 00:34N 54°60' W 005°16'9 7.5
2017-Jan-18 23:21N 54°58' W 005°01'0 0.0
2017-Jan-18 22:24N 54°58' W 005°01'6 5.8
2017-Jan-18 21:26N 55°02' W 005°08'1617.7
2017-Jan-18 20:33N 54°55' W 005°33'10 9.6
2017-Jan-18 19:33N 54°51' W 005°48'0 0.0
2017-Jan-18 18:33N 54°51' W 005°48'1313.5
2017-Jan-18 17:33N 54°57' W 005°27'1414.5
2017-Jan-18 16:34N 54°58' W 005°02'1 0.9
2017-Jan-18 15:33N 54°58' W 005°01'1010.2
2017-Jan-18 14:33N 54°59' W 005°19'1817.9
2017-Jan-18 13:33N 54°52' W 005°47'1 1.0
2017-Jan-18 12:34N 54°51' W 005°48'1413.8
2017-Jan-18 11:33N 54°57' W 005°27'1514.8
2017-Jan-18 10:33N 54°58' W 005°01'0 0.0
2017-Jan-18 09:33N 54°58' W 005°01'10 9.8
2017-Jan-18 08:34N 54°59' W 005°18'1818.1
2017-Jan-18 07:33N 54°52' W 005°47'1 1.3
2017-Jan-18 06:34N 54°51' W 005°48'2 2.1
2017-Jan-18 05:34N 54°52' W 005°45'2020.0
2017-Jan-18 04:33N 55°01' W 005°14'8 8.0
2017-Jan-18 03:33N 54°58' W 005°01'0 0.0
2017-Jan-18 02:33N 54°58' W 005°01'5 4.4
2017-Jan-18 01:31N 55°01' W 005°06'1919.4
2017-Jan-18 00:33N 54°54' W 005°35'8 7.9
2017-Jan-17 23:33N 54°51' W 005°48'0 0.0
2017-Jan-17 22:33N 54°51' W 005°48'4 4.2
2017-Jan-17 21:34N 54°53' W 005°42'1716.6
2017-Jan-17 20:33N 55°00' W 005°16'9 8.3
2017-Jan-17 19:30N 54°58' W 005°01'0 0.0
2017-Jan-17 18:32N 54°58' W 005°01'1212.0
2017-Jan-17 17:33N 54°60' W 005°21'1716.3
2017-Jan-17 16:29N 54°51' W 005°48'0 0.2
2017-Jan-17 15:34N 54°51' W 005°48'1211.9
2017-Jan-17 14:33N 54°57' W 005°30'1614.4
2017-Jan-17 13:27N 54°59' W 005°02'1 1.2
2017-Jan-17 12:24N 54°58' W 005°01'1012.1
2017-Jan-17 11:31N 54°59' W 005°19'1817.5
2017-Jan-17 10:30N 54°51' W 005°48'0 0.2
2017-Jan-17 09:33N 54°51' W 005°48'1212.5
2017-Jan-17 08:33N 54°57' W 005°29'1514.7
2017-Jan-17 07:31N 54°59' W 005°02'1 1.5
2017-Jan-17 06:33N 54°58' W 005°01'5 5.1
2017-Jan-17 05:33N 55°02' W 005°07'1817.5
2017-Jan-17 04:33N 54°55' W 005°35'8 8.4
2017-Jan-17 03:33N 54°51' W 005°48'0 0.0
2017-Jan-17 02:33N 54°51' W 005°48'4 3.9
2017-Jan-17 01:33N 54°53' W 005°42'1817.8
2017-Jan-17 00:33N 55°01' W 005°14'8 7.4
2017-Jan-16 23:26N 54°58' W 005°01'0 0.0
2017-Jan-16 22:29N 54°58' W 005°01'5 5.2
2017-Jan-16 21:29N 55°02' W 005°07'1718.4
2017-Jan-16 20:33N 54°55' W 005°34'9 8.7
2017-Jan-16 19:33N 54°51' W 005°48'0 0.0
2017-Jan-16 18:33N 54°51' W 005°48'1413.5
2017-Jan-16 17:33N 54°57' W 005°27'1414.4
2017-Jan-16 16:33N 54°59' W 005°02'1 1.4
2017-Jan-16 15:33N 54°58' W 005°01'1212.1
2017-Jan-16 14:33N 54°58' W 005°22'1616.3
2017-Jan-16 13:33N 54°51' W 005°48'0 0.1
2017-Jan-16 12:31N 54°51' W 005°48'1111.7
2017-Jan-16 11:33N 54°56' W 005°31'1615.4
2017-Jan-16 10:30N 54°59' W 005°03'2 1.9
2017-Jan-16 09:33N 54°58' W 005°01'1211.5
2017-Jan-16 08:33N 54°58' W 005°21'1716.5
2017-Jan-16 07:32N 54°51' W 005°48'0 0.1
2017-Jan-16 06:32N 54°51' W 005°48'4 4.4
2017-Jan-16 05:33N 54°54' W 005°42'1717.1
2017-Jan-16 04:33N 55°01' W 005°15'9 8.9
2017-Jan-16 03:32N 54°58' W 005°01'0 0.0
2017-Jan-16 02:32N 54°58' W 005°01'5 2.7
2017-Jan-16 00:32N 55°01' W 005°08'1616.8
2017-Jan-15 23:33N 54°54' W 005°33'9 9.1
2017-Jan-15 22:33N 54°51' W 005°48'5 4.9
2017-Jan-15 21:29N 54°54' W 005°40'1516.5
2017-Jan-15 20:33N 55°00' W 005°16'9 8.6
2017-Jan-15 19:30N 54°58' W 005°01'0 0.1
2017-Jan-15 18:33N 54°58' W 005°01'1110.6
2017-Jan-15 17:33N 54°58' W 005°20'1717.0
2017-Jan-15 16:32N 54°52' W 005°47'1 0.7
2017-Jan-15 15:19N 54°51' W 005°48'4 5.4
2017-Jan-15 14:34N 54°53' W 005°42'1716.9
2017-Jan-15 13:33N 55°01' W 005°15'9 8.8
2017-Jan-15 12:33N 54°58' W 005°01'0 0.0
2017-Jan-15 10:26N 54°58' W 005°01'0 0.0
2017-Jan-15 09:33N 54°58' W 005°01'9 8.8
2017-Jan-15 08:34N 54°59' W 005°16'1918.5
2017-Jan-15 07:31N 54°52' W 005°47'1 1.2
2017-Jan-15 06:28N 54°51' W 005°48'0 0.0
2017-Jan-15 05:25N 54°51' W 005°48'0 0.0
2017-Jan-15 04:31N 54°51' W 005°48'0 0.0
2017-Jan-15 03:31N 54°51' W 005°48'0 0.0
2017-Jan-15 02:31N 54°51' W 005°48'0 0.0
2017-Jan-15 01:31N 54°51' W 005°48'0 0.0
2017-Jan-15 00:31N 54°51' W 005°48'0 0.0
2017-Jan-14 23:31N 54°51' W 005°48'0 0.0
2017-Jan-14 22:31N 54°51' W 005°48'5 4.9
2017-Jan-14 21:33N 54°54' W 005°41'1615.8
2017-Jan-14 20:33N 54°60' W 005°16'9 8.2
2017-Jan-14 19:26N 54°58' W 005°01'0 0.1
2017-Jan-14 18:30N 54°58' W 005°01'1011.0
2017-Jan-14 17:33N 54°59' W 005°19'1817.8
2017-Jan-14 16:33N 54°51' W 005°48'1 0.6
2017-Jan-14 15:33N 54°51' W 005°48'1313.4
2017-Jan-14 14:33N 54°58' W 005°28'1414.2
2017-Jan-14 13:33N 54°59' W 005°03'2 1.6
2017-Jan-14 12:27N 54°58' W 005°01'1011.2
2017-Jan-14 11:33N 54°59' W 005°18'1818.0
2017-Jan-14 10:32N 54°52' W 005°47'1 1.0
2017-Jan-14 09:33N 54°51' W 005°48'1313.5
2017-Jan-14 08:34N 54°57' W 005°27'1414.3
2017-Jan-14 07:33N 54°59' W 005°02'1 1.2
2017-Jan-14 06:33N 54°58' W 005°01'5 5.0
2017-Jan-14 05:33N 55°02' W 005°06'1716.7
2017-Jan-14 04:33N 54°55' W 005°33'9 9.3
2017-Jan-14 03:33N 54°51' W 005°48'25 4.0
2017-Jan-13 21:19N 55°01' W 005°09'1317.1
2017-Jan-13 20:34N 54°56' W 005°29'1211.7
2017-Jan-13 19:33N 54°51' W 005°48'0 0.0
2017-Jan-13 18:30N 54°51' W 005°48'1414.9
2017-Jan-13 17:33N 54°58' W 005°27'1512.9
2017-Jan-13 16:25N 54°58' W 005°01'1 1.4
2017-Jan-13 15:21N 54°59' W 005°03'1417.4
2017-Jan-13 14:33N 55°01' W 005°27'1615.8
2017-Jan-13 13:33N 54°51' W 005°48'3 2.9
2017-Jan-13 12:33N 54°53' W 005°44'2019.8
2017-Jan-13 11:33N 55°02' W 005°13'8 7.9
2017-Jan-13 10:32N 54°58' W 005°01'2 1.6
2017-Jan-13 09:33N 54°59' W 005°03'1414.3
2017-Jan-13 08:34N 55°01' W 005°27'1515.2
2017-Jan-13 07:33N 54°51' W 005°48'0 0.0
2017-Jan-13 06:33N 54°51' W 005°48'7 6.9
2017-Jan-13 05:33N 54°54' W 005°37'1918.1
2017-Jan-13 04:30N 55°02' W 005°07'5 2.6
2017-Jan-13 02:33N 54°58' W 005°01'5 5.0
2017-Jan-13 01:30N 55°02' W 005°07'1818.9
2017-Jan-13 00:32N 54°56' W 005°37'8 7.9
2017-Jan-12 23:33N 54°51' W 005°48'0 0.0
2017-Jan-12 22:33N 54°51' W 005°48'4 4.5
2017-Jan-12 21:33N 54°53' W 005°41'2317.1
2017-Jan-12 20:13N 54°59' W 005°03'2 2.1
2017-Jan-12 19:24N 54°58' W 005°01'0 0.1
2017-Jan-12 18:25N 54°58' W 005°01'1112.3
2017-Jan-12 17:33N 54°60' W 005°19'1917.9
2017-Jan-12 16:31N 54°51' W 005°48'0 0.4
2017-Jan-12 15:32N 54°51' W 005°48'1313.0
2017-Jan-12 14:33N 54°57' W 005°29'1515.3
2017-Jan-12 13:33N 54°59' W 005°02'1 1.3
2017-Jan-12 12:33N 54°58' W 005°01'1211.7
2017-Jan-12 11:33N 54°57' W 005°21'1616.5
2017-Jan-12 10:33N 54°51' W 005°48'0 0.0
2017-Jan-12 09:33N 54°51' W 005°48'1615.5
2017-Jan-12 08:33N 54°58' W 005°24'1310.4
2017-Jan-12 07:16N 54°58' W 005°01'0 0.0
2017-Jan-12 06:31N 54°58' W 005°01'5 4.8
2017-Jan-12 05:29N 55°02' W 005°06'1717.9
2017-Jan-12 04:33N 54°55' W 005°33'9 9.0
2017-Jan-12 03:31N 54°51' W 005°48'0 0.0
2017-Jan-12 02:31N 54°51' W 005°48'1 1.5
2017-Jan-12 01:31N 54°52' W 005°47'2020.8
2017-Jan-12 00:33N 55°02' W 005°17'10 7.0
2017-Jan-11 23:06N 54°58' W 005°01'0 0.0
2017-Jan-11 22:30N 54°58' W 005°01'5 4.7
2017-Jan-11 21:27N 55°02' W 005°06'1820.3
2017-Jan-11 20:33N 54°54' W 005°36'8 7.7
2017-Jan-11 19:32N 54°51' W 005°48'2 1.8
2017-Jan-11 18:33N 54°52' W 005°46'2712.8
2017-Jan-11 16:29N 54°58' W 005°01'0 0.0
2017-Jan-11 15:33N 54°58' W 005°01'1211.7
2017-Jan-11 14:32N 54°58' W 005°21'1717.1
2017-Jan-11 13:34N 54°51' W 005°48'0 0.0
2017-Jan-11 12:31N 54°51' W 005°48'1617.0
2017-Jan-11 11:33N 54°59' W 005°24'1312.7
2017-Jan-11 10:32N 54°58' W 005°01'0 0.1
2017-Jan-11 09:23N 54°58' W 005°01'911.0
2017-Jan-11 08:33N 55°01' W 005°15'1918.8
2017-Jan-11 07:33N 54°52' W 005°44'3 2.6
2017-Jan-11 06:32N 54°51' W 005°48'2 2.0
2017-Jan-11 05:34N 54°52' W 005°46'1919.5
2017-Jan-11 04:34N 55°01' W 005°15'  

Dump ship's entire track history